sensor_id;sensor_type;location;lat;lon;timestamp;pressure;altitude;pressure_sealevel;temperature;humidity
22000;BME280;11164;48.818;2.322;2023-04-21T00:00:48;100229.66;;;10.35;33.83
22000;BME280;11164;48.818;2.322;2023-04-21T00:03:13;100225.34;;;10.54;33.61
22000;BME280;11164;48.818;2.322;2023-04-21T00:05:39;100228.47;;;10.71;33.42
22000;BME280;11164;48.818;2.322;2023-04-21T00:08:07;100217.03;;;10.68;33.47
22000;BME280;11164;48.818;2.322;2023-04-21T00:10:33;100224.91;;;10.77;33.45
22000;BME280;11164;48.818;2.322;2023-04-21T00:12:58;100221.19;;;10.71;33.87
22000;BME280;11164;48.818;2.322;2023-04-21T00:15:23;100214.34;;;10.75;33.58
22000;BME280;11164;48.818;2.322;2023-04-21T00:17:49;100214.53;;;10.54;34.05
22000;BME280;11164;48.818;2.322;2023-04-21T00:20:14;100215.56;;;10.46;33.95
22000;BME280;11164;48.818;2.322;2023-04-21T00:22:40;100211.19;;;10.18;34.24
22000;BME280;11164;48.818;2.322;2023-04-21T00:25:05;100220.50;;;10.09;34.70
22000;BME280;11164;48.818;2.322;2023-04-21T00:27:31;100210.59;;;10.23;34.59
22000;BME280;11164;48.818;2.322;2023-04-21T00:29:56;100213.72;;;10.40;34.21
22000;BME280;11164;48.818;2.322;2023-04-21T00:32:21;100201.72;;;10.62;33.72
22000;BME280;11164;48.818;2.322;2023-04-21T00:34:47;100195.47;;;10.55;33.94
22000;BME280;11164;48.818;2.322;2023-04-21T00:37:12;100201.47;;;10.37;34.09
22000;BME280;11164;48.818;2.322;2023-04-21T00:39:37;100201.28;;;10.45;34.26
22000;BME280;11164;48.818;2.322;2023-04-21T00:42:03;100193.19;;;10.45;33.97
22000;BME280;11164;48.818;2.322;2023-04-21T00:44:28;100182.81;;;10.22;34.63
22000;BME280;11164;48.818;2.322;2023-04-21T00:46:54;100178.47;;;10.21;34.48
22000;BME280;11164;48.818;2.322;2023-04-21T00:49:19;100181.78;;;10.30;34.46
22000;BME280;11164;48.818;2.322;2023-04-21T00:51:44;100173.28;;;10.20;34.42
22000;BME280;11164;48.818;2.322;2023-04-21T00:54:10;100183.22;;;10.06;34.61
22000;BME280;11164;48.818;2.322;2023-04-21T00:56:36;100174.13;;;10.13;34.61
22000;BME280;11164;48.818;2.322;2023-04-21T00:59:02;100175.34;;;10.24;34.44
22000;BME280;11164;48.818;2.322;2023-04-21T01:01:28;100171.84;;;10.24;34.26
22000;BME280;11164;48.818;2.322;2023-04-21T01:03:58;100169.78;;;10.32;34.50
22000;BME280;11164;48.818;2.322;2023-04-21T01:06:24;100165.41;;;10.38;34.22
22000;BME280;11164;48.818;2.322;2023-04-21T01:08:52;100168.72;;;10.13;34.74
22000;BME280;11164;48.818;2.322;2023-04-21T01:11:18;100163.34;;;10.13;34.89
22000;BME280;11164;48.818;2.322;2023-04-21T01:13:43;100154.84;;;10.17;34.84
22000;BME280;11164;48.818;2.322;2023-04-21T01:16:15;100157.94;;;10.07;35.31
22000;BME280;11164;48.818;2.322;2023-04-21T01:18:41;100155.84;;;10.02;34.99
22000;BME280;11164;48.818;2.322;2023-04-21T01:21:06;100149.63;;;9.95;34.74
22000;BME280;11164;48.818;2.322;2023-04-21T01:23:31;100146.53;;;9.91;35.14
22000;BME280;11164;48.818;2.322;2023-04-21T01:25:57;100151.50;;;9.88;35.31
22000;BME280;11164;48.818;2.322;2023-04-21T01:28:23;100152.97;;;10.04;34.88
22000;BME280;11164;48.818;2.322;2023-04-21T01:30:48;100146.78;;;10.17;34.66
22000;BME280;11164;48.818;2.322;2023-04-21T01:33:14;100143.84;;;10.31;34.47
22000;BME280;11164;48.818;2.322;2023-04-21T01:35:40;100151.53;;;10.28;34.62
22000;BME280;11164;48.818;2.322;2023-04-21T01:38:05;100146.75;;;10.10;35.28
22000;BME280;11164;48.818;2.322;2023-04-21T01:40:31;100147.56;;;10.04;35.07
22000;BME280;11164;48.818;2.322;2023-04-21T01:42:56;100146.97;;;10.22;34.93
22000;BME280;11164;48.818;2.322;2023-04-21T01:45:22;100141.56;;;10.28;34.60
22000;BME280;11164;48.818;2.322;2023-04-21T01:47:47;100141.34;;;9.77;35.29
22000;BME280;11164;48.818;2.322;2023-04-21T01:50:12;100140.50;;;9.76;35.73
22000;BME280;11164;48.818;2.322;2023-04-21T01:52:38;100139.69;;;10.09;34.91
22000;BME280;11164;48.818;2.322;2023-04-21T01:55:03;100135.34;;;10.28;34.97
22000;BME280;11164;48.818;2.322;2023-04-21T01:57:29;100134.13;;;10.30;35.12
22000;BME280;11164;48.818;2.322;2023-04-21T01:59:54;100127.88;;;10.30;34.96
22000;BME280;11164;48.818;2.322;2023-04-21T02:02:19;100133.28;;;10.30;34.85
22000;BME280;11164;48.818;2.322;2023-04-21T02:04:45;100117.72;;;10.39;34.95
22000;BME280;11164;48.818;2.322;2023-04-21T02:07:10;100121.25;;;10.39;34.85
22000;BME280;11164;48.818;2.322;2023-04-21T02:09:35;100116.91;;;10.38;34.83
22000;BME280;11164;48.818;2.322;2023-04-21T02:12:01;100111.72;;;10.43;34.99
22000;BME280;11164;48.818;2.322;2023-04-21T02:14:27;100110.88;;;10.49;34.44
22000;BME280;11164;48.818;2.322;2023-04-21T02:16:53;100110.25;;;10.47;34.85
22000;BME280;11164;48.818;2.322;2023-04-21T02:19:20;100111.50;;;10.52;34.73
22000;BME280;11164;48.818;2.322;2023-04-21T02:21:45;100103.41;;;10.52;34.52
22000;BME280;11164;48.818;2.322;2023-04-21T02:24:12;100111.91;;;10.35;35.09
22000;BME280;11164;48.818;2.322;2023-04-21T02:26:38;100104.88;;;10.34;35.34
22000;BME280;11164;48.818;2.322;2023-04-21T02:29:03;100113.59;;;10.43;35.37
22000;BME280;11164;48.818;2.322;2023-04-21T02:31:28;100117.53;;;10.60;35.30
22000;BME280;11164;48.818;2.322;2023-04-21T02:33:54;100108.56;;;10.73;34.86
22000;BME280;11164;48.818;2.322;2023-04-21T02:36:20;100109.63;;;10.72;34.90
22000;BME280;11164;48.818;2.322;2023-04-21T02:38:45;100106.53;;;10.62;35.14
22000;BME280;11164;48.818;2.322;2023-04-21T02:41:11;100110.25;;;10.67;35.36
22000;BME280;11164;48.818;2.322;2023-04-21T02:43:36;100112.53;;;10.71;35.07
22000;BME280;11164;48.818;2.322;2023-04-21T02:46:05;100110.22;;;10.81;35.01
22000;BME280;11164;48.818;2.322;2023-04-21T02:48:31;100109.16;;;10.82;34.81
22000;BME280;11164;48.818;2.322;2023-04-21T02:50:56;100085.34;;;10.72;35.09
22000;BME280;11164;48.818;2.322;2023-04-21T02:53:22;100091.38;;;10.67;35.17
22000;BME280;11164;48.818;2.322;2023-04-21T02:55:47;100095.94;;;10.67;35.42
22000;BME280;11164;48.818;2.322;2023-04-21T02:58:12;100098.66;;;10.40;35.99
22000;BME280;11164;48.818;2.322;2023-04-21T03:00:38;100082.66;;;10.52;35.63
22000;BME280;11164;48.818;2.322;2023-04-21T03:03:03;100091.78;;;10.64;35.55
22000;BME280;11164;48.818;2.322;2023-04-21T03:05:28;100089.97;;;10.58;35.29
22000;BME280;11164;48.818;2.322;2023-04-21T03:07:54;100081.84;;;10.52;35.72
22000;BME280;11164;48.818;2.322;2023-04-21T03:10:19;100082.09;;;10.17;36.23
22000;BME280;11164;48.818;2.322;2023-04-21T03:12:45;100092.84;;;10.23;36.09
22000;BME280;11164;48.818;2.322;2023-04-21T03:15:11;100081.47;;;10.21;36.14
22000;BME280;11164;48.818;2.322;2023-04-21T03:17:39;100074.44;;;10.27;36.10
22000;BME280;11164;48.818;2.322;2023-04-21T03:20:05;100073.78;;;10.25;36.00
22000;BME280;11164;48.818;2.322;2023-04-21T03:22:33;100084.16;;;10.28;36.28
22000;BME280;11164;48.818;2.322;2023-04-21T03:24:58;100067.19;;;10.01;36.55
22000;BME280;11164;48.818;2.322;2023-04-21T03:27:24;100076.06;;;10.28;36.12
22000;BME280;11164;48.818;2.322;2023-04-21T03:29:49;100076.06;;;10.41;35.80
22000;BME280;11164;48.818;2.322;2023-04-21T03:32:15;100070.47;;;10.36;35.65
22000;BME280;11164;48.818;2.322;2023-04-21T03:34:40;100061.94;;;10.46;35.70
22000;BME280;11164;48.818;2.322;2023-04-21T03:37:05;100069.81;;;10.47;35.98
22000;BME280;11164;48.818;2.322;2023-04-21T03:39:31;100066.75;;;10.30;36.25
22000;BME280;11164;48.818;2.322;2023-04-21T03:41:56;100074.84;;;10.30;36.32
22000;BME280;11164;48.818;2.322;2023-04-21T03:44:24;100062.00;;;10.12;36.41
22000;BME280;11164;48.818;2.322;2023-04-21T03:46:52;100064.28;;;10.16;36.57
22000;BME280;11164;48.818;2.322;2023-04-21T03:49:18;100062.41;;;10.16;36.67
22000;BME280;11164;48.818;2.322;2023-04-21T03:51:43;100064.06;;;10.30;36.33
22000;BME280;11164;48.818;2.322;2023-04-21T03:54:08;100064.44;;;10.41;36.17
22000;BME280;11164;48.818;2.322;2023-04-21T03:56:34;100056.53;;;10.53;35.88
22000;BME280;11164;48.818;2.322;2023-04-21T03:58:59;100063.59;;;10.54;36.09
22000;BME280;11164;48.818;2.322;2023-04-21T04:01:25;100041.59;;;10.57;35.88
22000;BME280;11164;48.818;2.322;2023-04-21T04:03:50;100049.91;;;10.55;35.99
22000;BME280;11164;48.818;2.322;2023-04-21T04:06:15;100055.31;;;10.62;36.02
22000;BME280;11164;48.818;2.322;2023-04-21T04:08:41;100054.47;;;10.61;36.09
22000;BME280;11164;48.818;2.322;2023-04-21T04:11:06;100054.03;;;10.58;36.10
22000;BME280;11164;48.818;2.322;2023-04-21T04:13:32;100049.06;;;10.55;36.17
22000;BME280;11164;48.818;2.322;2023-04-21T04:15:58;100054.91;;;10.52;36.38
22000;BME280;11164;48.818;2.322;2023-04-21T04:18:24;100053.22;;;10.57;36.29
22000;BME280;11164;48.818;2.322;2023-04-21T04:20:49;100036.44;;;10.48;36.31
22000;BME280;11164;48.818;2.322;2023-04-21T04:23:15;100050.25;;;10.79;35.86
22000;BME280;11164;48.818;2.322;2023-04-21T04:25:40;100053.00;;;10.72;35.99
22000;BME280;11164;48.818;2.322;2023-04-21T04:28:08;100036.22;;;10.50;36.21
22000;BME280;11164;48.818;2.322;2023-04-21T04:30:34;100050.13;;;10.60;36.08
22000;BME280;11164;48.818;2.322;2023-04-21T04:33:00;100048.03;;;10.69;36.07
22000;BME280;11164;48.818;2.322;2023-04-21T04:35:25;100040.38;;;10.59;36.07
22000;BME280;11164;48.818;2.322;2023-04-21T04:37:51;100046.16;;;10.69;36.33
22000;BME280;11164;48.818;2.322;2023-04-21T04:40:17;100032.06;;;10.61;36.03
22000;BME280;11164;48.818;2.322;2023-04-21T04:42:43;100049.25;;;10.73;36.06
22000;BME280;11164;48.818;2.322;2023-04-21T04:45:11;100056.94;;;10.63;36.19
22000;BME280;11164;48.818;2.322;2023-04-21T04:47:38;100050.50;;;10.77;36.18
22000;BME280;11164;48.818;2.322;2023-04-21T04:50:04;100050.66;;;10.82;35.92
22000;BME280;11164;48.818;2.322;2023-04-21T04:52:30;100036.22;;;10.50;36.54
22000;BME280;11164;48.818;2.322;2023-04-21T04:54:55;100045.13;;;10.50;36.56
22000;BME280;11164;48.818;2.322;2023-04-21T04:57:21;100037.44;;;10.54;36.61
22000;BME280;11164;48.818;2.322;2023-04-21T04:59:46;100045.34;;;10.42;36.74
22000;BME280;11164;48.818;2.322;2023-04-21T05:02:12;100046.84;;;10.18;37.13
22000;BME280;11164;48.818;2.322;2023-04-21T05:04:37;100038.78;;;10.18;37.11
22000;BME280;11164;48.818;2.322;2023-04-21T05:07:03;100046.63;;;10.26;37.15
22000;BME280;11164;48.818;2.322;2023-04-21T05:09:30;100037.28;;;10.42;36.80
22000;BME280;11164;48.818;2.322;2023-04-21T05:11:56;100040.38;;;10.59;36.57
22000;BME280;11164;48.818;2.322;2023-04-21T05:14:21;100047.84;;;10.37;37.13
22000;BME280;11164;48.818;2.322;2023-04-21T05:16:46;100039.53;;;10.65;36.57
22000;BME280;11164;48.818;2.322;2023-04-21T05:19:12;100036.56;;;10.80;36.57
22000;BME280;11164;48.818;2.322;2023-04-21T05:21:37;100042.63;;;10.56;36.90
22000;BME280;11164;48.818;2.322;2023-04-21T05:24:02;100031.28;;;10.40;37.26
22000;BME280;11164;48.818;2.322;2023-04-21T05:26:28;100043.66;;;10.55;36.76
22000;BME280;11164;48.818;2.322;2023-04-21T05:28:54;100033.94;;;10.67;36.89
22000;BME280;11164;48.818;2.322;2023-04-21T05:31:22;100041.94;;;10.80;36.81
22000;BME280;11164;48.818;2.322;2023-04-21T05:33:47;100036.72;;;10.92;36.77
22000;BME280;11164;48.818;2.322;2023-04-21T05:36:13;100043.50;;;11.01;36.80
22000;BME280;11164;48.818;2.322;2023-04-21T05:38:38;100041.47;;;10.97;36.51
22000;BME280;11164;48.818;2.322;2023-04-21T05:41:04;100041.69;;;10.95;36.79
22000;BME280;11164;48.818;2.322;2023-04-21T05:43:30;100046.53;;;10.80;37.05
22000;BME280;11164;48.818;2.322;2023-04-21T05:45:59;100041.72;;;10.88;36.96
22000;BME280;11164;48.818;2.322;2023-04-21T05:48:25;100043.88;;;11.12;36.46
22000;BME280;11164;48.818;2.322;2023-04-21T05:50:50;100042.63;;;11.14;36.61
22000;BME280;11164;48.818;2.322;2023-04-21T05:53:15;100044.25;;;11.22;36.39
22000;BME280;11164;48.818;2.322;2023-04-21T05:55:41;100047.59;;;11.17;36.82
22000;BME280;11164;48.818;2.322;2023-04-21T05:58:06;100046.69;;;11.30;36.65
22000;BME280;11164;48.818;2.322;2023-04-21T06:00:32;100031.16;;;11.57;36.14
22000;BME280;11164;48.818;2.322;2023-04-21T06:02:57;100050.97;;;11.76;36.07
22000;BME280;11164;48.818;2.322;2023-04-21T06:05:23;100037.22;;;11.21;36.82
22000;BME280;11164;48.818;2.322;2023-04-21T06:07:48;100046.13;;;11.21;36.90
22000;BME280;11164;48.818;2.322;2023-04-21T06:10:13;100045.84;;;11.36;36.85
22000;BME280;11164;48.818;2.322;2023-04-21T06:12:39;100045.72;;;11.50;36.75
22000;BME280;11164;48.818;2.322;2023-04-21T06:15:05;100034.44;;;11.59;36.64
22000;BME280;11164;48.818;2.322;2023-04-21T06:17:30;100031.22;;;11.12;37.00
22000;BME280;11164;48.818;2.322;2023-04-21T06:19:56;100041.81;;;11.46;36.72
22000;BME280;11164;48.818;2.322;2023-04-21T06:22:22;100037.13;;;11.91;36.19
22000;BME280;11164;48.818;2.322;2023-04-21T06:24:47;100035.78;;;12.26;35.70
22000;BME280;11164;48.818;2.322;2023-04-21T06:27:13;100032.03;;;12.45;35.64
22000;BME280;11164;48.818;2.322;2023-04-21T06:29:39;100024.81;;;12.21;35.65
22000;BME280;11164;48.818;2.322;2023-04-21T06:32:04;100037.25;;;12.03;36.27
22000;BME280;11164;48.818;2.322;2023-04-21T06:34:29;100042.41;;;12.05;36.38
22000;BME280;11164;48.818;2.322;2023-04-21T06:36:55;100038.84;;;12.29;36.12
22000;BME280;11164;48.818;2.322;2023-04-21T06:39:20;100039.38;;;12.38;36.02
22000;BME280;11164;48.818;2.322;2023-04-21T06:41:45;100025.72;;;12.33;35.99
22000;BME280;11164;48.818;2.322;2023-04-21T06:44:11;100029.38;;;12.20;36.18
22000;BME280;11164;48.818;2.322;2023-04-21T06:46:39;100036.81;;;12.25;36.12
22000;BME280;11164;48.818;2.322;2023-04-21T06:49:05;100017.50;;;12.21;36.13
22000;BME280;11164;48.818;2.322;2023-04-21T06:51:30;100033.16;;;12.37;36.06
22000;BME280;11164;48.818;2.322;2023-04-21T06:53:56;100034.69;;;13.19;35.21
22000;BME280;11164;48.818;2.322;2023-04-21T06:56:21;100033.06;;;13.84;34.46
22000;BME280;11164;48.818;2.322;2023-04-21T06:58:47;100033.94;;;14.08;34.05
22000;BME280;11164;48.818;2.322;2023-04-21T07:01:12;100031.31;;;13.36;35.29
22000;BME280;11164;48.818;2.322;2023-04-21T07:03:37;100037.47;;;13.12;35.61
22000;BME280;11164;48.818;2.322;2023-04-21T07:06:03;100039.81;;;13.09;35.75
22000;BME280;11164;48.818;2.322;2023-04-21T07:08:28;100030.81;;;13.27;35.67
22000;BME280;11164;48.818;2.322;2023-04-21T07:10:53;100028.66;;;13.59;35.28
22000;BME280;11164;48.818;2.322;2023-04-21T07:13:19;100024.63;;;13.92;35.18
22000;BME280;11164;48.818;2.322;2023-04-21T07:15:44;100022.16;;;13.91;35.04
22000;BME280;11164;48.818;2.322;2023-04-21T07:18:10;100031.31;;;13.36;35.82
22000;BME280;11164;48.818;2.322;2023-04-21T07:20:35;100029.50;;;13.60;35.29
22000;BME280;11164;48.818;2.322;2023-04-21T07:23:01;100024.28;;;14.00;34.84
22000;BME280;11164;48.818;2.322;2023-04-21T07:25:26;100022.56;;;14.47;34.42
22000;BME280;11164;48.818;2.322;2023-04-21T07:27:51;100015.19;;;14.30;34.61
22000;BME280;11164;48.818;2.322;2023-04-21T07:30:17;100018.84;;;14.12;34.82
22000;BME280;11164;48.818;2.322;2023-04-21T07:32:42;100010.72;;;14.00;34.98
22000;BME280;11164;48.818;2.322;2023-04-21T07:35:08;100019.09;;;13.99;34.88
22000;BME280;11164;48.818;2.322;2023-04-21T07:37:33;100004.22;;;13.90;34.67
22000;BME280;11164;48.818;2.322;2023-04-21T07:39:58;100007.06;;;14.18;34.54
22000;BME280;11164;48.818;2.322;2023-04-21T07:42:24;100012.00;;;14.21;34.59
22000;BME280;11164;48.818;2.322;2023-04-21T07:44:52;100007.75;;;14.37;34.41
22000;BME280;11164;48.818;2.322;2023-04-21T07:47:17;100005.75;;;14.33;34.34
22000;BME280;11164;48.818;2.322;2023-04-21T07:49:43;100011.38;;;13.72;35.01
22000;BME280;11164;48.818;2.322;2023-04-21T07:52:08;100013.13;;;13.66;34.97
22000;BME280;11164;48.818;2.322;2023-04-21T07:54:33;100011.59;;;13.59;34.97
22000;BME280;11164;48.818;2.322;2023-04-21T07:56:59;100018.94;;;13.28;35.32
22000;BME280;11164;48.818;2.322;2023-04-21T07:59:25;100015.38;;;13.16;35.35
22000;BME280;11164;48.818;2.322;2023-04-21T08:01:51;100006.75;;;13.49;34.56
22000;BME280;11164;48.818;2.322;2023-04-21T08:04:16;100004.03;;;13.49;34.61
22000;BME280;11164;48.818;2.322;2023-04-21T08:06:45;100013.38;;;13.65;33.86
22000;BME280;11164;48.818;2.322;2023-04-21T08:09:10;100010.69;;;13.77;34.20
22000;BME280;11164;48.818;2.322;2023-04-21T08:11:35;99998.81;;;14.13;33.49
22000;BME280;11164;48.818;2.322;2023-04-21T08:14:01;100005.28;;;14.36;33.32
22000;BME280;11164;48.818;2.322;2023-04-21T08:16:28;100001.88;;;14.29;33.31
22000;BME280;11164;48.818;2.322;2023-04-21T08:18:53;100004.97;;;13.97;33.66
22000;BME280;11164;48.818;2.322;2023-04-21T08:21:18;100010.31;;;13.73;33.71
22000;BME280;11164;48.818;2.322;2023-04-21T08:23:44;100003.88;;;13.98;33.52
22000;BME280;11164;48.818;2.322;2023-04-21T08:26:09;99977.25;;;13.83;33.31
22000;BME280;11164;48.818;2.322;2023-04-21T08:28:35;100000.63;;;13.42;33.91
22000;BME280;11164;48.818;2.322;2023-04-21T08:31:00;99993.31;;;13.42;33.91
22000;BME280;11164;48.818;2.322;2023-04-21T08:33:26;99989.81;;;13.77;33.47
22000;BME280;11164;48.818;2.322;2023-04-21T08:35:52;99995.84;;;14.27;32.98
22000;BME280;11164;48.818;2.322;2023-04-21T08:38:17;99997.59;;;13.85;33.53
22000;BME280;11164;48.818;2.322;2023-04-21T08:40:42;100000.19;;;14.28;32.98
22000;BME280;11164;48.818;2.322;2023-04-21T08:43:08;99995.00;;;14.38;32.89
22000;BME280;11164;48.818;2.322;2023-04-21T08:45:34;100004.22;;;14.37;32.85
22000;BME280;11164;48.818;2.322;2023-04-21T08:48:01;100000.53;;;14.31;32.92
22000;BME280;11164;48.818;2.322;2023-04-21T08:50:29;99995.03;;;13.91;33.39
22000;BME280;11164;48.818;2.322;2023-04-21T08:52:56;100000.19;;;13.80;33.50
22000;BME280;11164;48.818;2.322;2023-04-21T08:55:27;99993.72;;;13.93;33.16
22000;BME280;11164;48.818;2.322;2023-04-21T08:57:53;99997.25;;;13.82;33.46
22000;BME280;11164;48.818;2.322;2023-04-21T09:00:19;99998.06;;;13.82;33.21
22000;BME280;11164;48.818;2.322;2023-04-21T09:03:10;100007.75;;;14.25;32.21
22000;BME280;11164;48.818;2.322;2023-04-21T09:05:36;99994.19;;;14.37;32.55
22000;BME280;11164;48.818;2.322;2023-04-21T09:08:12;99996.56;;;14.34;32.32
22000;BME280;11164;48.818;2.322;2023-04-21T09:10:48;99998.00;;;14.13;32.58
22000;BME280;11164;48.818;2.322;2023-04-21T09:13:14;99992.31;;;14.26;32.73
22000;BME280;11164;48.818;2.322;2023-04-21T09:15:41;99996.25;;;14.59;32.38
22000;BME280;11164;48.818;2.322;2023-04-21T09:18:12;100000.84;;;14.99;31.75
22000;BME280;11164;48.818;2.322;2023-04-21T09:20:38;99999.09;;;15.22;31.58
22000;BME280;11164;48.818;2.322;2023-04-21T09:23:04;99994.66;;;15.15;31.73
22000;BME280;11164;48.818;2.322;2023-04-21T09:25:31;100002.22;;;14.85;32.13
22000;BME280;11164;48.818;2.322;2023-04-21T09:27:56;100002.00;;;14.62;32.61
22000;BME280;11164;48.818;2.322;2023-04-21T09:30:23;100003.56;;;14.58;32.55
22000;BME280;11164;48.818;2.322;2023-04-21T09:32:49;99999.69;;;14.54;32.44
22000;BME280;11164;48.818;2.322;2023-04-21T09:35:15;100002.78;;;14.46;32.41
22000;BME280;11164;48.818;2.322;2023-04-21T09:37:42;100002.09;;;14.79;32.10
22000;BME280;11164;48.818;2.322;2023-04-21T09:40:12;100004.28;;;15.23;31.48
22000;BME280;11164;48.818;2.322;2023-04-21T09:42:38;99995.03;;;15.36;31.49
22000;BME280;11164;48.818;2.322;2023-04-21T09:45:03;99994.94;;;15.65;31.02
22000;BME280;11164;48.818;2.322;2023-04-21T09:47:32;99996.34;;;15.67;30.98
22000;BME280;11164;48.818;2.322;2023-04-21T09:49:59;99984.19;;;15.53;31.15
22000;BME280;11164;48.818;2.322;2023-04-21T09:52:27;99993.47;;;15.40;31.29
22000;BME280;11164;48.818;2.322;2023-04-21T09:54:56;99991.03;;;15.10;31.48
22000;BME280;11164;48.818;2.322;2023-04-21T09:57:25;99989.09;;;15.39;31.20
22000;BME280;11164;48.818;2.322;2023-04-21T09:59:57;99986.63;;;15.54;30.25
22000;BME280;11164;48.818;2.322;2023-04-21T10:02:25;99984.59;;;15.62;30.64
22000;BME280;11164;48.818;2.322;2023-04-21T10:04:54;99985.56;;;15.72;30.48
22000;BME280;11164;48.818;2.322;2023-04-21T10:07:20;99986.41;;;15.90;30.61
22000;BME280;11164;48.818;2.322;2023-04-21T10:09:50;99982.19;;;15.82;29.18
22000;BME280;11164;48.818;2.322;2023-04-21T10:12:20;99980.78;;;16.36;29.89
22000;BME280;11164;48.818;2.322;2023-04-21T10:14:50;99976.66;;;17.32;28.67
22000;BME280;11164;48.818;2.322;2023-04-21T10:17:16;99981.06;;;17.33;28.96
22000;BME280;11164;48.818;2.322;2023-04-21T10:20:03;99973.81;;;17.76;27.29
22000;BME280;11164;48.818;2.322;2023-04-21T10:22:34;99969.59;;;17.31;28.64
22000;BME280;11164;48.818;2.322;2023-04-21T10:25:01;99974.44;;;16.96;29.40
22000;BME280;11164;48.818;2.322;2023-04-21T10:27:40;99971.53;;;16.59;27.42
22000;BME280;11164;48.818;2.322;2023-04-21T10:30:22;99969.84;;;16.53;27.50
22000;BME280;11164;48.818;2.322;2023-04-21T10:32:48;99975.25;;;16.69;29.51
22000;BME280;11164;48.818;2.322;2023-04-21T10:36:18;99971.97;;;16.95;27.07
22000;BME280;11164;48.818;2.322;2023-04-21T10:38:42;99970.69;;;17.02;29.03
22000;BME280;11164;48.818;2.322;2023-04-21T10:41:33;99976.91;;;17.25;27.59
22000;BME280;11164;48.818;2.322;2023-04-21T10:44:11;99969.84;;;17.02;27.72
22000;BME280;11164;48.818;2.322;2023-04-21T10:46:38;99961.69;;;16.75;29.15
22000;BME280;11164;48.818;2.322;2023-04-21T10:49:08;99954.56;;;16.96;28.97
22000;BME280;11164;48.818;2.322;2023-04-21T10:54:28;99957.09;;;16.58;29.05
22000;BME280;11164;48.818;2.322;2023-04-21T10:56:55;99950.28;;;16.78;28.72
22000;BME280;11164;48.818;2.322;2023-04-21T10:59:21;99942.75;;;16.19;29.39
22000;BME280;11164;48.818;2.322;2023-04-21T11:01:46;99938.97;;;16.20;29.24
22000;BME280;11164;48.818;2.322;2023-04-21T11:04:16;99932.69;;;16.19;29.00
22000;BME280;11164;48.818;2.322;2023-04-21T11:07:04;99937.25;;;16.36;28.92
22000;BME280;11164;48.818;2.322;2023-04-21T11:09:28;99932.84;;;15.90;29.55
22000;BME280;11164;48.818;2.322;2023-04-21T11:11:58;99925.84;;;16.17;28.73
22000;BME280;11164;48.818;2.322;2023-04-21T11:14:23;99928.56;;;16.17;29.03
22000;BME280;11164;48.818;2.322;2023-04-21T11:16:49;99928.84;;;16.37;28.93
22000;BME280;11164;48.818;2.322;2023-04-21T11:19:15;99923.00;;;16.06;29.26
22000;BME280;11164;48.818;2.322;2023-04-21T11:21:40;99925.28;;;16.15;28.97
22000;BME280;11164;48.818;2.322;2023-04-21T11:24:07;99932.06;;;16.34;28.97
22000;BME280;11164;48.818;2.322;2023-04-21T11:26:36;99927.56;;;16.45;28.34
22000;BME280;11164;48.818;2.322;2023-04-21T11:29:08;99927.19;;;16.36;28.66
22000;BME280;11164;48.818;2.322;2023-04-21T11:31:38;99930.69;;;16.54;28.44
22000;BME280;11164;48.818;2.322;2023-04-21T11:34:05;99924.09;;;16.49;28.39
22000;BME280;11164;48.818;2.322;2023-04-21T11:36:42;99930.22;;;16.62;27.26
22000;BME280;11164;48.818;2.322;2023-04-21T11:39:10;99926.44;;;16.41;28.64
22000;BME280;11164;48.818;2.322;2023-04-21T11:41:40;99916.19;;;16.26;28.48
22000;BME280;11164;48.818;2.322;2023-04-21T11:44:07;99931.81;;;16.36;28.87
22000;BME280;11164;48.818;2.322;2023-04-21T11:46:32;99930.22;;;16.62;28.18
22000;BME280;11164;48.818;2.322;2023-04-21T11:49:06;99929.84;;;16.75;28.29
22000;BME280;11164;48.818;2.322;2023-04-21T11:51:38;99931.22;;;17.05;27.55
22000;BME280;11164;48.818;2.322;2023-04-21T11:54:05;99922.94;;;17.22;27.76
22000;BME280;11164;48.818;2.322;2023-04-21T11:56:38;99924.81;;;16.89;25.87
22000;BME280;11164;48.818;2.322;2023-04-21T12:01:50;99925.22;;;17.03;26.94
22000;BME280;11164;48.818;2.322;2023-04-21T12:04:21;99930.31;;;17.59;27.34
22000;BME280;11164;48.818;2.322;2023-04-21T12:07:01;99928.69;;;17.58;26.40
22000;BME280;11164;48.818;2.322;2023-04-21T12:09:28;99929.53;;;16.99;27.76
22000;BME280;11164;48.818;2.322;2023-04-21T12:11:55;99926.88;;;16.77;27.84
22000;BME280;11164;48.818;2.322;2023-04-21T12:14:25;99922.59;;;16.37;28.33
22000;BME280;11164;48.818;2.322;2023-04-21T12:16:56;99932.63;;;16.58;28.16
22000;BME280;11164;48.818;2.322;2023-04-21T12:19:37;99918.19;;;16.80;25.28
22000;BME280;11164;48.818;2.322;2023-04-21T12:22:10;99916.53;;;16.57;27.52
22000;BME280;11164;48.818;2.322;2023-04-21T12:24:36;99930.78;;;16.64;27.71
22000;BME280;11164;48.818;2.322;2023-04-21T12:27:02;99930.81;;;16.91;27.11
22000;BME280;11164;48.818;2.322;2023-04-21T12:29:28;99921.50;;;17.14;27.07
22000;BME280;11164;48.818;2.322;2023-04-21T12:31:53;99921.78;;;17.13;26.81
22000;BME280;11164;48.818;2.322;2023-04-21T12:34:19;99922.25;;;17.42;26.37
22000;BME280;11164;48.818;2.322;2023-04-21T12:36:44;99935.00;;;17.63;26.01
22000;BME280;11164;48.818;2.322;2023-04-21T12:39:09;99922.50;;;19.04;24.62
22000;BME280;11164;48.818;2.322;2023-04-21T12:41:35;99916.69;;;20.03;23.56
22000;BME280;11164;48.818;2.322;2023-04-21T12:44:00;99921.13;;;19.89;23.67
22000;BME280;11164;48.818;2.322;2023-04-21T12:46:26;99927.28;;;20.31;23.68
22000;BME280;11164;48.818;2.322;2023-04-21T12:48:52;99931.00;;;21.40;22.42
22000;BME280;11164;48.818;2.322;2023-04-21T12:51:17;99921.50;;;22.15;21.93
22000;BME280;11164;48.818;2.322;2023-04-21T12:53:42;99917.78;;;23.05;20.95
22000;BME280;11164;48.818;2.322;2023-04-21T12:56:08;99917.16;;;22.95;21.03